createdAt,value
2017-11-11T00:01:46.590Z,9.82
2017-11-11T00:04:24.613Z,9.52
2017-11-11T00:07:03.987Z,8.05
2017-11-11T00:09:41.094Z,9.13
2017-11-11T00:12:20.355Z,9.40
2017-11-11T00:15:01.456Z,10.27
2017-11-11T00:17:42.245Z,9.05
2017-11-11T00:20:12.010Z,8.82
2017-11-11T00:22:50.959Z,8.85
2017-11-11T00:25:35.227Z,9.10
2017-11-11T00:28:17.648Z,9.00
2017-11-11T00:30:51.558Z,9.63
2017-11-11T00:33:34.542Z,8.93
2017-11-11T00:36:19.340Z,9.82
2017-11-11T00:39:00.996Z,10.95
2017-11-11T00:41:46.071Z,8.88
2017-11-11T00:44:33.138Z,9.48
2017-11-11T00:47:12.088Z,8.90
2017-11-11T00:49:57.289Z,10.13
2017-11-11T00:52:35.236Z,11.27
2017-11-11T00:55:16.197Z,10.52
2017-11-11T00:57:55.157Z,9.13
2017-11-11T01:00:35.323Z,9.52
2017-11-11T01:03:15.914Z,9.40
2017-11-11T01:05:55.931Z,9.43
2017-11-11T01:08:35.661Z,9.68
2017-11-11T01:11:13.175Z,8.10
2017-11-11T01:13:51.801Z,9.32
2017-11-11T01:16:31.670Z,9.75
2017-11-11T01:19:10.595Z,10.38
2017-11-11T01:21:55.625Z,7.93
2017-11-11T01:24:34.839Z,9.35
2017-11-11T01:27:13.158Z,8.85
2017-11-11T01:29:53.932Z,7.85
2017-11-11T01:32:32.232Z,9.80
2017-11-11T01:35:11.057Z,8.32
2017-11-11T01:37:53.541Z,9.05
2017-11-11T01:40:38.651Z,8.00
2017-11-11T01:43:22.331Z,8.65
2017-11-11T01:46:05.775Z,8.93
2017-11-11T01:48:45.686Z,8.85
2017-11-11T01:51:28.449Z,8.93
2017-11-11T01:54:13.040Z,8.65
2017-11-11T01:56:57.228Z,8.57
2017-11-11T01:59:41.929Z,7.07
2017-11-11T02:02:25.078Z,8.40
2017-11-11T02:05:04.716Z,8.50
2017-11-11T02:07:43.928Z,8.90
2017-11-11T02:10:23.560Z,8.35
2017-11-11T02:13:03.227Z,8.75
2017-11-11T02:15:42.631Z,8.70
2017-11-11T02:18:22.112Z,8.18
2017-11-11T02:21:06.669Z,7.95
2017-11-11T02:23:49.189Z,9.73
2017-11-11T02:26:32.021Z,8.38
2017-11-11T02:29:16.958Z,9.25
2017-11-11T02:31:54.796Z,10.18
2017-11-11T02:34:36.192Z,9.60
2017-11-11T02:37:18.696Z,9.07
2017-11-11T02:39:57.968Z,9.15
2017-11-11T02:42:36.356Z,7.30
2017-11-11T02:45:15.443Z,9.75
2017-11-11T02:47:55.442Z,10.80
2017-11-11T02:50:33.768Z,9.23
2017-11-11T02:53:17.949Z,8.73
2017-11-11T02:55:59.934Z,9.70
2017-11-11T02:58:43.873Z,9.70
2017-11-11T03:01:28.489Z,9.48
2017-11-11T03:04:13.308Z,8.32
2017-11-11T03:06:55.348Z,8.95
2017-11-11T03:09:41.002Z,8.50
2017-11-11T03:12:25.258Z,7.53
2017-11-11T03:15:11.184Z,7.75
2017-11-11T03:17:55.819Z,9.32
2017-11-11T03:20:38.305Z,8.38
2017-11-11T03:23:21.739Z,8.77
2017-11-11T03:26:02.962Z,7.32
2017-11-11T03:28:42.798Z,7.62
2017-11-11T03:31:22.990Z,7.60
2017-11-11T03:34:02.732Z,9.38
2017-11-11T03:36:42.315Z,8.73
2017-11-11T03:39:21.659Z,7.20
2017-11-11T03:42:01.333Z,7.07
2017-11-11T03:44:40.769Z,7.30
2017-11-11T03:47:20.540Z,8.35
2017-11-11T03:49:59.339Z,8.30
2017-11-11T03:52:38.595Z,7.45
2017-11-11T03:55:21.176Z,6.40
2017-11-11T03:58:01.997Z,8.38
2017-11-11T04:00:44.359Z,8.40
2017-11-11T04:03:28.529Z,10.55
2017-11-11T04:06:09.765Z,7.82
2017-11-11T04:08:54.810Z,8.25
2017-11-11T04:11:34.490Z,7.22
2017-11-11T04:14:19.036Z,8.50
2017-11-11T04:17:00.873Z,7.78
2017-11-11T04:19:43.004Z,8.32
2017-11-11T04:22:24.759Z,6.90
2017-11-11T04:25:09.153Z,6.97
2017-11-11T04:27:52.910Z,8.00
2017-11-11T04:30:32.417Z,7.97
2017-11-11T04:33:10.814Z,7.78
2017-11-11T04:35:55.724Z,7.68
2017-11-11T04:38:39.255Z,7.10
2017-11-11T04:41:19.708Z,8.05
2017-11-11T04:43:59.961Z,8.00
2017-11-11T04:46:39.927Z,8.82
2017-11-11T04:49:19.521Z,7.32
2017-11-11T04:52:02.103Z,7.30
2017-11-11T04:54:39.926Z,9.20
2017-11-11T04:57:26.939Z,7.60
2017-11-11T05:00:08.283Z,8.00
2017-11-11T05:02:48.699Z,7.47
2017-11-11T05:05:29.591Z,7.30
2017-11-11T05:08:09.075Z,7.32
2017-11-11T05:10:51.162Z,6.95
2017-11-11T05:13:33.053Z,6.68
2017-11-11T05:16:17.151Z,7.72
2017-11-11T05:18:59.980Z,8.18
2017-11-11T05:21:38.376Z,7.57
2017-11-11T05:24:07.806Z,7.65
2017-11-11T05:26:37.537Z,7.47
2017-11-11T05:29:16.296Z,8.05
2017-11-11T05:31:53.534Z,7.32
2017-11-11T05:34:39.586Z,8.35
2017-11-11T05:37:26.214Z,8.00
2017-11-11T05:40:09.819Z,7.50
2017-11-11T05:42:51.882Z,7.07
2017-11-11T05:45:33.953Z,7.82
2017-11-11T05:48:18.996Z,7.12
2017-11-11T05:51:02.912Z,6.28
2017-11-11T05:53:45.080Z,8.07
2017-11-11T05:56:28.075Z,7.07
2017-11-11T05:59:08.992Z,7.62
2017-11-11T06:01:50.402Z,7.90
2017-11-11T06:04:23.758Z,7.32
2017-11-11T06:07:04.364Z,7.95
2017-11-11T06:09:42.659Z,7.50
2017-11-11T06:12:23.697Z,7.15
2017-11-11T06:14:53.801Z,6.80
2017-11-11T06:17:35.648Z,7.90
2017-11-11T06:20:15.274Z,7.05
2017-11-11T06:22:55.752Z,8.15
2017-11-11T06:25:35.843Z,8.95
2017-11-11T06:28:15.304Z,7.30
2017-11-11T06:30:52.809Z,6.00
2017-11-11T06:33:33.949Z,6.43
2017-11-11T06:36:17.008Z,8.75
2017-11-11T06:38:57.357Z,6.78
2017-11-11T06:41:37.438Z,6.30
2017-11-11T06:44:16.496Z,7.50
2017-11-11T06:46:56.510Z,7.80
2017-11-11T06:49:37.039Z,8.63
2017-11-11T06:52:11.830Z,8.80
2017-11-11T06:54:48.324Z,7.97
2017-11-11T06:57:35.716Z,8.10
2017-11-11T07:00:21.606Z,8.43
2017-11-11T07:03:02.825Z,7.97
2017-11-11T07:05:39.505Z,6.87
2017-11-11T07:08:14.564Z,8.00
2017-11-11T07:10:58.195Z,7.30
2017-11-11T07:13:34.516Z,7.80
2017-11-11T07:16:09.414Z,7.40
2017-11-11T07:18:45.099Z,7.37
2017-11-11T07:21:17.868Z,7.18
2017-11-11T07:23:51.692Z,7.22
2017-11-11T07:26:25.257Z,7.45
2017-11-11T07:35:21.234Z,7.10
2017-11-11T07:37:55.100Z,6.80
2017-11-11T07:44:03.293Z,7.62
2017-11-11T07:46:39.010Z,7.30
2017-11-11T07:49:14.941Z,6.10
2017-11-11T07:51:48.055Z,6.32
2017-11-11T07:54:22.974Z,7.18
2017-11-11T07:56:59.425Z,7.03
2017-11-11T07:59:32.661Z,5.45
2017-11-11T08:02:08.337Z,5.93
2017-11-11T08:04:41.869Z,6.22
2017-11-11T08:07:16.585Z,6.43
2017-11-11T08:09:50.700Z,6.57
2017-11-11T08:12:25.122Z,6.45
2017-11-11T08:14:59.446Z,5.62
2017-11-11T08:17:34.510Z,5.70
2017-11-11T08:20:10.008Z,6.30
2017-11-11T08:22:43.275Z,6.00
2017-11-11T08:25:16.876Z,6.87
2017-11-11T08:27:50.065Z,4.15
2017-11-11T08:30:23.186Z,7.53
2017-11-11T08:32:57.979Z,6.40
2017-11-11T08:35:31.307Z,6.40
2017-11-11T08:38:05.061Z,5.90
2017-11-11T08:40:39.163Z,7.20
2017-11-11T08:43:13.142Z,5.78
2017-11-11T08:45:47.113Z,6.70
2017-11-11T08:48:20.652Z,6.40
2017-11-11T08:50:55.162Z,7.47
2017-11-11T08:53:29.476Z,5.72
2017-11-11T08:56:05.089Z,5.97
2017-11-11T08:58:39.200Z,6.72
2017-11-11T09:01:12.261Z,7.22
2017-11-11T09:03:45.975Z,6.78
2017-11-11T09:06:19.081Z,6.72
2017-11-11T09:08:53.300Z,7.10
2017-11-11T09:11:28.916Z,7.10
2017-11-11T09:14:02.748Z,7.25
2017-11-11T09:16:38.829Z,6.35
2017-11-11T09:19:19.840Z,6.75
2017-11-11T09:21:55.442Z,9.45
2017-11-11T09:24:30.022Z,8.32
2017-11-11T09:27:04.028Z,8.52
2017-11-11T09:29:38.175Z,7.53
2017-11-11T09:32:10.733Z,6.85
2017-11-11T09:34:45.568Z,8.32
2017-11-11T09:37:21.561Z,8.52
2017-11-11T09:39:55.863Z,7.30
2017-11-11T09:42:29.965Z,7.97
2017-11-11T09:45:03.867Z,8.05
2017-11-11T09:47:38.830Z,7.65
2017-11-11T09:50:12.505Z,7.45
2017-11-11T09:52:48.089Z,9.20
2017-11-11T09:55:27.292Z,8.52
2017-11-11T09:58:05.847Z,8.07
2017-11-11T10:00:45.633Z,8.85
2017-11-11T10:03:26.913Z,8.05
2017-11-11T10:06:05.189Z,6.78
2017-11-11T10:08:39.094Z,8.10
2017-11-11T10:11:12.997Z,9.32
2017-11-11T10:13:51.470Z,9.65
2017-11-11T10:16:28.782Z,8.85
2017-11-11T10:19:05.106Z,8.52
2017-11-11T10:21:45.019Z,6.80
2017-11-11T10:24:29.008Z,8.85
2017-11-11T10:27:08.071Z,8.48
2017-11-11T10:29:47.426Z,8.85
2017-11-11T10:32:29.445Z,9.75
2017-11-11T10:35:10.543Z,9.32
2017-11-11T10:37:49.306Z,9.48
2017-11-11T10:40:22.356Z,10.00
2017-11-11T10:42:54.665Z,10.73
2017-11-11T10:45:33.436Z,10.93
2017-11-11T10:48:12.729Z,9.45
2017-11-11T10:50:47.076Z,9.68
2017-11-11T10:53:26.579Z,10.45
2017-11-11T10:56:06.393Z,9.43
2017-11-11T10:58:46.097Z,14.27
2017-11-11T11:01:25.934Z,10.68
2017-11-11T11:04:08.510Z,9.48
2017-11-11T11:06:42.942Z,10.13
2017-11-11T11:09:21.596Z,11.05
2017-11-11T11:12:04.445Z,10.73
2017-11-11T11:14:45.925Z,11.05
2017-11-11T11:17:29.291Z,8.80
2017-11-11T11:20:02.913Z,10.23
2017-11-11T11:22:37.068Z,10.60
2017-11-11T11:25:11.005Z,10.20
2017-11-11T11:27:43.759Z,10.25
2017-11-11T11:30:17.613Z,12.05
2017-11-11T11:32:52.103Z,9.55
2017-11-11T11:35:27.012Z,9.30
2017-11-11T11:38:02.145Z,11.20
2017-11-11T11:40:38.289Z,10.85
2017-11-11T11:43:11.658Z,11.95
2017-11-11T11:45:44.391Z,11.20
2017-11-11T11:48:17.067Z,12.70
2017-11-11T11:50:51.743Z,10.80
2017-11-11T11:53:26.187Z,11.32
2017-11-11T11:55:59.402Z,11.45
2017-11-11T11:58:40.428Z,11.40
2017-11-11T12:01:20.474Z,11.30
2017-11-11T12:03:58.915Z,10.90
2017-11-11T12:06:38.536Z,12.50
2017-11-11T12:09:16.081Z,11.70
2017-11-11T12:11:55.138Z,11.05
2017-11-11T12:14:34.458Z,10.48
2017-11-11T12:17:15.150Z,10.80
2017-11-11T12:19:57.846Z,10.95
2017-11-11T12:22:38.072Z,10.00
2017-11-11T12:25:19.203Z,10.20
2017-11-11T12:27:58.295Z,11.60
2017-11-11T12:30:32.410Z,9.68
2017-11-11T12:33:13.460Z,11.60
2017-11-11T12:35:52.619Z,10.48
2017-11-11T12:38:34.010Z,10.50
2017-11-11T12:41:13.630Z,8.85
2017-11-11T12:43:51.689Z,7.97
2017-11-11T12:46:29.876Z,9.27
2017-11-11T12:49:09.890Z,8.50
2017-11-11T12:51:49.300Z,9.13
2017-11-11T12:54:29.285Z,8.63
2017-11-11T12:57:08.097Z,8.60
2017-11-11T12:59:40.590Z,8.57
2017-11-11T13:02:14.468Z,8.65
2017-11-11T13:04:56.716Z,8.95
2017-11-11T13:07:39.534Z,9.50
2017-11-11T13:10:21.384Z,9.68
2017-11-11T13:12:56.752Z,10.80
2017-11-11T13:15:31.509Z,11.10
2017-11-11T13:18:09.744Z,12.40
2017-11-11T13:20:44.012Z,11.10
2017-11-11T13:23:18.006Z,17.52
2017-11-11T13:25:57.926Z,13.62
2017-11-11T13:28:40.228Z,13.95
2017-11-11T13:31:19.337Z,15.75
2017-11-11T13:34:00.620Z,14.98
2017-11-11T13:36:39.849Z,15.70
2017-11-11T13:39:19.512Z,14.15
2017-11-11T13:41:59.618Z,13.85
2017-11-11T13:44:37.302Z,13.98
2017-11-11T13:47:10.181Z,12.80
2017-11-11T13:49:43.434Z,13.25
2017-11-11T13:52:16.427Z,12.30
2017-11-11T13:54:56.691Z,11.25
2017-11-11T13:57:37.164Z,12.30
2017-11-11T14:00:10.824Z,10.90
2017-11-11T14:02:50.249Z,9.68
2017-11-11T14:05:32.073Z,9.90
2017-11-11T14:08:11.316Z,10.45
2017-11-11T14:10:50.772Z,10.63
2017-11-11T14:13:27.343Z,11.35
2017-11-11T14:16:06.125Z,11.43
2017-11-11T14:18:38.993Z,11.85
2017-11-11T14:21:17.559Z,10.60
2017-11-11T14:23:57.906Z,11.88
2017-11-11T14:26:33.242Z,10.60
2017-11-11T14:29:12.584Z,10.25
2017-11-11T14:31:52.870Z,10.55
2017-11-11T14:34:35.004Z,11.70
2017-11-11T14:37:14.560Z,12.48
2017-11-11T14:39:56.041Z,11.77
2017-11-11T14:42:37.724Z,11.32
2017-11-11T14:45:15.662Z,11.75
2017-11-11T14:47:51.495Z,12.93
2017-11-11T14:50:29.555Z,11.65
2017-11-11T14:53:10.877Z,14.40
2017-11-11T14:55:45.497Z,12.90
2017-11-11T14:58:20.594Z,13.75
2017-11-11T15:01:01.203Z,14.05
2017-11-11T15:03:40.960Z,13.98
2017-11-11T15:06:20.954Z,13.10
2017-11-11T15:08:55.383Z,15.48
2017-11-11T15:11:36.211Z,15.27
2017-11-11T15:14:12.148Z,14.52
2017-11-11T15:16:52.078Z,15.65
2017-11-11T15:19:32.941Z,17.33
2017-11-11T15:22:12.571Z,15.85
2017-11-11T15:24:52.594Z,15.88
2017-11-11T15:27:33.135Z,17.65
2017-11-11T15:30:06.745Z,17.52
2017-11-11T15:32:46.674Z,17.27
2017-11-11T15:35:22.816Z,16.60
2017-11-11T15:37:57.937Z,15.70
2017-11-11T15:40:31.648Z,17.10
2017-11-11T15:43:09.970Z,17.08
2017-11-11T15:45:45.348Z,17.70
2017-11-11T15:48:25.381Z,18.45
2017-11-11T15:51:00.727Z,18.45
2017-11-11T15:53:37.282Z,19.20
2017-11-11T15:56:11.129Z,19.83
2017-11-11T15:58:51.061Z,18.35
2017-11-11T16:01:30.016Z,21.40
2017-11-11T16:04:03.606Z,20.42
2017-11-11T16:06:40.363Z,19.40
2017-11-11T16:09:14.408Z,18.83
2017-11-11T16:11:48.290Z,19.30
2017-11-11T16:14:24.328Z,20.58
2017-11-11T16:16:59.588Z,19.33
2017-11-11T16:19:33.787Z,20.12
2017-11-11T16:22:09.279Z,20.98
2017-11-11T16:24:42.975Z,21.25
2017-11-11T16:27:17.083Z,21.42
2017-11-11T16:29:51.422Z,19.42
2017-11-11T16:32:27.212Z,21.67
2017-11-11T16:35:03.118Z,21.25
2017-11-11T16:37:37.208Z,20.20
2017-11-11T16:40:12.253Z,20.35
2017-11-11T16:42:46.792Z,21.75
2017-11-11T16:45:20.708Z,21.05
2017-11-11T16:47:54.653Z,21.12
2017-11-11T16:50:27.750Z,23.55
2017-11-11T16:53:01.653Z,22.20
2017-11-11T16:55:34.469Z,22.98
2017-11-11T16:58:09.253Z,24.05
2017-11-11T17:00:47.366Z,25.00
2017-11-11T17:03:22.392Z,23.00
2017-11-11T17:05:57.339Z,23.75
2017-11-11T17:08:32.370Z,25.00
2017-11-11T17:11:10.230Z,23.80
2017-11-11T17:13:45.059Z,24.98
2017-11-11T17:16:28.031Z,24.60
2017-11-11T17:18:58.461Z,22.58
2017-11-11T17:21:36.879Z,23.77
2017-11-11T17:24:12.045Z,23.48
2017-11-11T17:26:46.629Z,23.87
2017-11-11T17:29:22.094Z,24.70
2017-11-11T17:31:59.621Z,25.90
2017-11-11T17:34:34.662Z,25.52
2017-11-11T17:37:10.178Z,23.65
2017-11-11T17:39:44.227Z,23.80
2017-11-11T17:42:21.263Z,26.08
2017-11-11T17:44:56.808Z,26.62
2017-11-11T17:47:31.849Z,25.23
2017-11-11T17:50:07.362Z,26.23
2017-11-11T17:52:42.696Z,26.08
2017-11-11T17:55:16.710Z,27.83
2017-11-11T17:57:52.577Z,28.58
2017-11-11T18:00:27.562Z,26.42
2017-11-11T18:03:01.256Z,27.92
2017-11-11T18:05:35.100Z,28.08
2017-11-11T18:08:05.229Z,28.45
2017-11-11T18:10:41.336Z,29.90
2017-11-11T18:13:15.787Z,29.63
2017-11-11T18:15:53.408Z,32.45
2017-11-11T18:18:28.357Z,32.17
2017-11-11T18:21:10.415Z,31.90
2017-11-11T18:23:51.221Z,33.33
2017-11-11T18:26:33.134Z,30.73
2017-11-11T18:29:07.656Z,32.35
2017-11-11T18:31:50.454Z,33.10
2017-11-11T18:34:31.164Z,35.17
2017-11-11T18:37:10.348Z,34.78
2017-11-11T18:39:51.648Z,32.10
2017-11-11T18:42:31.333Z,34.80
2017-11-11T18:45:12.557Z,34.08
2017-11-11T18:47:52.229Z,35.08
2017-11-11T18:50:25.744Z,34.90
2017-11-11T18:53:05.404Z,34.15
2017-11-11T18:55:45.576Z,34.15
2017-11-11T18:58:27.989Z,34.20
2017-11-11T19:01:07.709Z,36.17
2017-11-11T19:03:45.043Z,36.05
2017-11-11T19:06:27.337Z,34.00
2017-11-11T19:09:09.578Z,37.17
2017-11-11T19:11:48.831Z,36.00
2017-11-11T19:14:23.502Z,35.45
2017-11-11T19:17:02.822Z,34.45
2017-11-11T19:19:43.236Z,38.10
2017-11-11T19:22:23.361Z,37.65
2017-11-11T19:25:03.577Z,37.38
2017-11-11T19:27:38.631Z,36.97
2017-11-11T19:30:20.624Z,35.45
2017-11-11T19:33:00.389Z,35.58
2017-11-11T19:35:39.939Z,38.00
2017-11-11T19:38:15.059Z,36.08
2017-11-11T19:40:57.903Z,38.22
2017-11-11T19:43:36.510Z,35.25
2017-11-11T19:46:17.352Z,32.63
2017-11-11T19:48:56.592Z,37.97
2017-11-11T19:51:31.344Z,35.70
2017-11-11T19:54:12.985Z,35.53
2017-11-11T19:56:56.931Z,33.25
2017-11-11T19:59:33.176Z,37.58
2017-11-11T20:02:12.453Z,34.50
2017-11-11T20:04:55.591Z,34.72
2017-11-11T20:07:33.421Z,35.03
2017-11-11T20:10:16.624Z,34.20
2017-11-11T20:13:01.824Z,34.08
2017-11-11T20:15:43.997Z,32.83
2017-11-11T20:18:23.618Z,29.90
2017-11-11T20:21:07.497Z,29.45
2017-11-11T20:23:54.294Z,30.37
2017-11-11T20:26:36.706Z,31.90
2017-11-11T20:29:15.371Z,34.38
2017-11-11T20:31:54.758Z,31.40
2017-11-11T20:34:39.566Z,32.33
2017-11-11T20:37:20.599Z,34.65
2017-11-11T20:40:02.668Z,31.50
2017-11-11T20:42:40.576Z,32.08
2017-11-11T20:45:21.677Z,30.55
2017-11-11T20:47:56.856Z,32.25
2017-11-11T20:50:35.239Z,32.03
2017-11-11T20:53:13.090Z,31.20
2017-11-11T20:55:51.463Z,35.15
2017-11-11T20:58:34.283Z,30.85
2017-11-11T21:01:15.211Z,34.75
2017-11-11T21:03:55.400Z,33.15
2017-11-11T21:06:33.292Z,34.53
2017-11-11T21:09:15.727Z,30.50
2017-11-11T21:12:00.246Z,31.87
2017-11-11T21:14:43.731Z,31.10
2017-11-11T21:17:29.158Z,31.58
2017-11-11T21:20:10.999Z,32.72
2017-11-11T21:22:53.787Z,30.25
2017-11-11T21:25:30.542Z,31.42
2017-11-11T21:28:08.153Z,32.47
2017-11-11T21:30:51.487Z,34.92
2017-11-11T21:33:31.241Z,33.35
2017-11-11T21:36:10.340Z,32.00
2017-11-11T21:38:54.648Z,30.62
2017-11-11T21:41:32.416Z,32.17
2017-11-11T21:44:12.364Z,30.30
2017-11-11T21:46:49.978Z,32.92
2017-11-11T21:49:24.221Z,33.88
2017-11-11T21:52:02.716Z,31.87
2017-11-11T21:54:46.927Z,33.17
2017-11-11T21:57:24.555Z,32.35
2017-11-11T22:00:04.430Z,29.52
2017-11-11T22:02:43.156Z,34.30
2017-11-11T22:05:26.857Z,31.60
2017-11-11T22:08:04.328Z,32.42
2017-11-11T22:10:46.941Z,30.33
2017-11-11T22:13:27.232Z,29.98
2017-11-11T22:16:08.471Z,31.85
2017-11-11T22:18:51.542Z,31.20
2017-11-11T22:21:37.916Z,30.33
2017-11-11T22:24:11.884Z,32.30
2017-11-11T22:26:49.501Z,34.63
2017-11-11T22:29:31.793Z,33.00
2017-11-11T22:32:12.492Z,34.88
2017-11-11T22:34:55.133Z,35.00
2017-11-11T22:37:39.825Z,37.55
2017-11-11T22:40:15.247Z,38.80
2017-11-11T22:42:57.975Z,39.42
2017-11-11T22:45:37.609Z,40.22
2017-11-11T22:48:18.212Z,40.17
2017-11-11T22:50:56.378Z,39.60
2017-11-11T22:53:36.219Z,40.45
2017-11-11T22:56:19.091Z,39.10
2017-11-11T22:59:04.647Z,40.63
2017-11-11T23:01:46.482Z,43.87
2017-11-11T23:04:29.469Z,41.72
2017-11-11T23:07:11.790Z,42.85
2017-11-11T23:09:54.428Z,43.75
2017-11-11T23:12:35.342Z,46.67
2017-11-11T23:15:14.100Z,49.25
2017-11-11T23:17:55.392Z,48.72
2017-11-11T23:20:36.591Z,50.05
2017-11-11T23:23:18.488Z,49.00
2017-11-11T23:25:57.182Z,49.45
2017-11-11T23:28:39.416Z,50.40
2017-11-11T23:31:20.164Z,52.62
2017-11-11T23:33:59.902Z,48.87
2017-11-11T23:36:41.943Z,48.30
2017-11-11T23:39:27.092Z,49.08
2017-11-11T23:42:10.441Z,48.58
2017-11-11T23:44:56.136Z,47.92
2017-11-11T23:47:33.718Z,48.33
2017-11-11T23:50:18.039Z,47.83
2017-11-11T23:53:02.709Z,47.53
2017-11-11T23:55:49.107Z,50.92
2017-11-11T23:58:32.563Z,47.88
